This is the latest recevied weather packets stored in our database for station/object W3BRL. If no packets are shown the sender has not sent any weather packets the latest 10 day(s).
| Time | Temp. | Humidity | Pressure | Rain* | Wind** | Luminosity | Snow |
|---|---|---|---|---|---|---|---|
| 1777867328 | 8.89° C | 52% | 1011.4 hPa | 0 mm | - | 0 W/m² | - |
| 1777867024 | 8.33° C | 51% | 1011.1 hPa | 0 mm | - | 0 W/m² | - |
| 1777866722 | 8.89° C | 52% | 1011.4 hPa | 0 mm | - | 0 W/m² | - |
| 1777865813 | 8.89° C | 53% | 1011.4 hPa | 0 mm | - | 0 W/m² | - |
| 1777865207 | 8.89° C | 51% | 1011.4 hPa | 0 mm | - | 0 W/m² | - |
| 1777864298 | 10° C | 47% | 1011.3 hPa | 0 mm | - | 0 W/m² | - |
| 1777847627 | 13.89° C | 34% | 1011.6 hPa | 0 mm | - | 132 W/m² | - |
| 1777847322 | 13.89° C | 33% | 1011.6 hPa | 0 mm | - | 89 W/m² | - |
| 1777845506 | 14.44° C | 34% | 1011.5 hPa | 0 mm | - | 361 W/m² | - |
| 1777844598 | 13.89° C | 34% | 1011.4 hPa | 0 mm | - | 424 W/m² | - |
| 1777844296 | 14.44° C | 34% | 1011.4 hPa | 0 mm | - | 141 W/m² | - |
| 1777843993 | 15° C | 32% | 1011.4 hPa | 0 mm | - | 114 W/m² | - |
| 1777843690 | 14.44° C | 33% | 1011.3 hPa | 0 mm | - | 440 W/m² | - |
| 1777843388 | 14.44° C | 32% | 1011.5 hPa | 0 mm | - | 466 W/m² | - |
| 1777843085 | 14.44° C | 34% | 1011.4 hPa | 0 mm | - | 505 W/m² | - |
| 1777842781 | 14.44° C | 33% | 1011.5 hPa | 0 mm | - | 525 W/m² | - |
| 1777842481 | 14.44° C | 33% | 1011.6 hPa | 0 mm | - | 338 W/m² | - |
| 1777842179 | 13.89° C | 33% | 1011.4 hPa | 0 mm | - | 579 W/m² | - |
| 1777840662 | 13.89° C | 32% | 1011.9 hPa | 0 mm | - | 454 W/m² | - |
| 1777840360 | 14.44° C | 33% | 1011.9 hPa | 0 mm | - | 180 W/m² | - |
| 1777840057 | 13.89° C | 34% | 1011.9 hPa | 0 mm | - | 706 W/m² | - |
| 1777839754 | 13.89° C | 33% | 1011.8 hPa | 0 mm | - | 180 W/m² | - |
| 1777838846 | 14.44° C | 32% | 1012 hPa | 0 mm | - | 203 W/m² | - |
| 1777837936 | 13.89° C | 32% | 1012.1 hPa | 0 mm | - | 789 W/m² | - |
| 1777835507 | 13.89° C | 32% | 1013 hPa | 0 mm | - | 208 W/m² | - |
* Rain latest hour (hover to see other rain measurements)
** Current wind speed in m/s (hover to see current wind gust speed)